createdAt,value
2023-12-15T00:02:10.238Z,91.84
2023-12-15T00:04:37.794Z,91.72
2023-12-15T00:07:05.519Z,91.21
2023-12-15T00:09:33.060Z,91.25
2023-12-15T00:12:01.979Z,90.97
2023-12-15T00:14:29.594Z,90.83
2023-12-15T00:16:57.328Z,90.01
2023-12-15T00:19:24.931Z,91.03
2023-12-15T00:21:52.587Z,91.15
2023-12-15T00:24:20.133Z,90.99
2023-12-15T00:26:47.676Z,90.65
2023-12-15T00:29:16.622Z,90.77
2023-12-15T00:31:44.169Z,91.50
2023-12-15T00:34:11.777Z,90.70
2023-12-15T00:36:39.488Z,91.20
2023-12-15T00:39:07.238Z,90.83
2023-12-15T00:41:34.819Z,90.76
2023-12-15T00:44:03.537Z,91.44
2023-12-15T00:46:32.716Z,91.63
2023-12-15T00:49:00.469Z,90.80
2023-12-15T00:51:28.068Z,91.19
2023-12-15T00:53:55.640Z,91.00
2023-12-15T00:56:23.304Z,90.54
2023-12-15T00:58:50.927Z,90.94
2023-12-15T01:01:18.561Z,90.49
2023-12-15T01:03:47.582Z,89.78
2023-12-15T01:06:15.326Z,90.07
2023-12-15T01:08:43.065Z,90.55
2023-12-15T01:11:10.655Z,89.78
2023-12-15T01:13:38.250Z,89.89
2023-12-15T01:16:06.981Z,89.40
2023-12-15T01:18:34.869Z,89.72
2023-12-15T01:21:03.844Z,90.40
2023-12-15T01:23:31.481Z,90.10
2023-12-15T01:25:59.131Z,90.09
2023-12-15T01:28:27.704Z,89.63
2023-12-15T01:30:55.332Z,89.64
2023-12-15T01:33:23.015Z,90.59
2023-12-15T01:35:50.837Z,90.74
2023-12-15T01:38:20.011Z,90.49
2023-12-15T01:40:47.604Z,90.32
2023-12-15T01:43:15.172Z,90.24
2023-12-15T01:45:42.702Z,89.70
2023-12-15T01:48:10.351Z,89.46
2023-12-15T01:50:38.003Z,89.07
2023-12-15T01:53:05.641Z,88.02
2023-12-15T01:55:34.753Z,88.32
2023-12-15T01:58:02.346Z,87.37
2023-12-15T02:00:29.996Z,87.54
2023-12-15T02:02:57.701Z,87.67
2023-12-15T02:05:25.373Z,87.31
2023-12-15T02:07:52.996Z,87.63
2023-12-15T02:10:20.664Z,87.43
2023-12-15T02:12:49.899Z,87.67
2023-12-15T02:15:17.538Z,88.48
2023-12-15T02:17:45.415Z,88.45
2023-12-15T02:20:13.211Z,88.33
2023-12-15T02:22:42.129Z,88.17
2023-12-15T02:25:10.054Z,88.01
2023-12-15T02:27:37.884Z,89.08
2023-12-15T02:30:06.530Z,89.67
2023-12-15T02:32:34.193Z,88.95
2023-12-15T02:35:01.972Z,89.95
2023-12-15T02:37:29.825Z,89.61
2023-12-15T02:39:58.865Z,89.65
2023-12-15T02:42:26.425Z,89.52
2023-12-15T02:44:54.005Z,89.80
2023-12-15T02:47:21.586Z,89.82
2023-12-15T02:49:49.267Z,89.90
2023-12-15T02:52:16.900Z,89.91
2023-12-15T02:54:44.486Z,90.46
2023-12-15T02:57:13.389Z,90.87
2023-12-15T02:59:40.965Z,91.06
2023-12-15T03:02:08.658Z,90.95
2023-12-15T03:04:36.271Z,91.66
2023-12-15T03:07:03.935Z,91.61
2023-12-15T03:09:31.931Z,92.03
2023-12-15T03:11:59.671Z,92.40
2023-12-15T03:14:28.657Z,92.39
2023-12-15T03:16:56.356Z,92.69
2023-12-15T03:19:24.043Z,92.87
2023-12-15T03:21:51.665Z,93.00
2023-12-15T03:24:19.208Z,92.14
2023-12-15T03:26:46.844Z,92.18
2023-12-15T03:29:14.432Z,92.75
2023-12-15T03:31:43.556Z,92.67
2023-12-15T03:34:11.204Z,92.77
2023-12-15T03:36:40.281Z,92.60
2023-12-15T03:39:08.216Z,92.99
2023-12-15T03:41:36.131Z,92.60
2023-12-15T03:44:03.743Z,92.99
2023-12-15T03:46:32.047Z,92.96
2023-12-15T03:49:00.950Z,92.82
2023-12-15T03:51:28.623Z,92.45
2023-12-15T03:53:56.229Z,92.66
2023-12-15T03:56:27.461Z,92.30
2023-12-15T03:58:55.394Z,92.71
2023-12-15T04:01:23.146Z,92.65
2023-12-15T04:03:50.764Z,92.70
2023-12-15T04:06:19.772Z,93.15
2023-12-15T04:08:47.365Z,92.97
2023-12-15T04:11:17.686Z,93.24
2023-12-15T04:13:45.758Z,93.23
2023-12-15T04:16:13.361Z,93.46
2023-12-15T04:18:41.027Z,93.32
2023-12-15T04:21:08.833Z,93.50
2023-12-15T04:23:37.774Z,92.81
2023-12-15T04:26:05.956Z,93.28
2023-12-15T04:28:33.604Z,93.37
2023-12-15T04:31:01.230Z,92.94
2023-12-15T04:33:28.897Z,93.04
2023-12-15T04:35:56.521Z,93.23
2023-12-15T04:38:24.104Z,92.67
2023-12-15T04:40:52.067Z,93.14
2023-12-15T04:43:19.624Z,92.94
2023-12-15T04:45:47.207Z,92.52
2023-12-15T04:48:14.870Z,93.01
2023-12-15T04:50:42.599Z,93.34
2023-12-15T04:53:10.276Z,93.17
2023-12-15T04:55:37.873Z,93.17
2023-12-15T04:58:07.053Z,93.39
2023-12-15T05:00:34.852Z,93.19
2023-12-15T05:03:02.496Z,93.29
2023-12-15T05:05:30.141Z,93.73
2023-12-15T05:07:57.877Z,93.86
2023-12-15T05:10:25.645Z,93.59
2023-12-15T05:12:53.239Z,93.53
2023-12-15T05:15:22.445Z,94.02
2023-12-15T05:17:50.906Z,94.20
2023-12-15T05:20:18.828Z,93.98
2023-12-15T05:22:46.422Z,93.53
2023-12-15T05:25:14.131Z,93.92
2023-12-15T05:27:41.670Z,93.55
2023-12-15T05:30:09.984Z,93.73
2023-12-15T05:32:39.127Z,92.46
2023-12-15T05:35:07.592Z,92.96
2023-12-15T05:37:35.302Z,92.46
2023-12-15T05:40:03.499Z,92.12
2023-12-15T05:42:31.064Z,92.02
2023-12-15T05:44:58.636Z,92.15
2023-12-15T05:47:26.331Z,91.99
2023-12-15T05:49:55.897Z,92.63
2023-12-15T05:52:23.536Z,92.09
2023-12-15T05:54:51.109Z,92.95
2023-12-15T05:57:18.764Z,92.64
2023-12-15T05:59:46.417Z,92.90
2023-12-15T06:02:14.063Z,92.47
2023-12-15T06:04:41.672Z,92.69
2023-12-15T06:07:10.934Z,93.22
2023-12-15T06:09:38.827Z,93.10
2023-12-15T06:12:07.688Z,92.79
2023-12-15T06:14:35.499Z,92.27
2023-12-15T06:17:07.147Z,92.53
2023-12-15T06:19:34.956Z,92.73
2023-12-15T06:22:02.615Z,92.07
2023-12-15T06:24:31.508Z,91.82
2023-12-15T06:26:59.080Z,91.79
2023-12-15T06:29:26.778Z,92.23
2023-12-15T06:31:54.423Z,91.75
2023-12-15T06:34:22.123Z,91.96
2023-12-15T06:36:49.789Z,91.71
2023-12-15T06:39:17.353Z,91.73
2023-12-15T06:41:46.246Z,92.07
2023-12-15T06:44:13.872Z,92.04
2023-12-15T06:46:41.545Z,92.10
2023-12-15T06:49:09.243Z,92.49
2023-12-15T06:51:36.907Z,92.18
2023-12-15T06:54:04.647Z,92.23
2023-12-15T06:56:32.315Z,92.52
2023-12-15T06:59:01.275Z,92.05
2023-12-15T07:01:28.859Z,92.56
2023-12-15T07:03:56.469Z,91.71
2023-12-15T07:06:24.625Z,92.08
2023-12-15T07:08:55.824Z,91.90
2023-12-15T07:11:23.488Z,91.85
2023-12-15T07:13:51.095Z,92.54
2023-12-15T07:16:20.098Z,92.50
2023-12-15T07:18:47.761Z,91.98
2023-12-15T07:21:15.472Z,92.05
2023-12-15T07:23:43.085Z,92.13
2023-12-15T07:26:12.261Z,91.80
2023-12-15T07:28:39.861Z,92.14
2023-12-15T07:31:10.577Z,91.79
2023-12-15T07:33:41.244Z,91.73
2023-12-15T07:36:10.946Z,91.91
2023-12-15T07:38:38.691Z,92.04
2023-12-15T07:41:07.516Z,92.14
2023-12-15T07:43:35.250Z,92.00
2023-12-15T07:46:02.895Z,91.88
2023-12-15T07:48:30.588Z,91.33
2023-12-15T07:50:59.624Z,91.54
2023-12-15T07:53:27.322Z,91.15
2023-12-15T07:55:55.159Z,91.89
2023-12-15T07:58:22.722Z,91.28
2023-12-15T08:00:52.891Z,91.51
2023-12-15T08:03:20.531Z,91.51
2023-12-15T08:05:48.221Z,91.38
2023-12-15T08:08:17.213Z,91.63
2023-12-15T08:10:44.782Z,91.47
2023-12-15T08:13:14.685Z,91.66
2023-12-15T08:15:42.360Z,91.54
2023-12-15T08:18:10.303Z,91.68
2023-12-15T08:20:38.031Z,90.98
2023-12-15T08:23:05.714Z,91.35
2023-12-15T08:25:34.618Z,91.27
2023-12-15T08:28:03.616Z,91.07
2023-12-15T08:30:31.345Z,91.21
2023-12-15T08:33:02.686Z,90.91
2023-12-15T08:35:30.434Z,90.59
2023-12-15T08:37:58.917Z,90.42
2023-12-15T08:40:26.735Z,90.48
2023-12-15T08:42:55.701Z,90.50
2023-12-15T08:45:23.495Z,90.55
2023-12-15T08:47:51.795Z,90.23
2023-12-15T08:50:19.921Z,90.58
2023-12-15T08:52:47.513Z,90.75
2023-12-15T08:55:15.185Z,90.28
2023-12-15T08:57:42.721Z,89.97
2023-12-15T09:00:13.097Z,90.22
2023-12-15T09:02:40.672Z,90.56
2023-12-15T09:05:19.027Z,90.49
2023-12-15T09:07:56.685Z,89.87
2023-12-15T09:10:25.241Z,89.53
2023-12-15T09:12:53.062Z,90.19
2023-12-15T09:15:22.008Z,90.12
2023-12-15T09:17:49.825Z,89.60
2023-12-15T09:20:17.552Z,90.10
2023-12-15T09:22:45.484Z,89.07
2023-12-15T09:25:13.029Z,88.43
2023-12-15T09:27:41.063Z,89.23
2023-12-15T09:30:09.388Z,86.52
2023-12-15T09:32:38.447Z,88.56
2023-12-15T09:35:06.806Z,87.54
2023-12-15T09:37:34.397Z,87.85
2023-12-15T09:40:01.989Z,88.04
2023-12-15T09:42:29.559Z,88.22
2023-12-15T09:45:04.481Z,88.33
2023-12-15T09:47:39.182Z,88.18
2023-12-15T09:50:07.887Z,87.95
2023-12-15T09:52:37.781Z,87.11
2023-12-15T09:55:07.417Z,87.26
2023-12-15T09:57:35.769Z,88.09
2023-12-15T10:00:04.272Z,87.80
2023-12-15T10:02:31.822Z,86.93
2023-12-15T10:05:00.781Z,86.96
2023-12-15T10:07:28.333Z,85.58
2023-12-15T10:09:55.883Z,82.93
2023-12-15T10:12:23.676Z,84.17
2023-12-15T10:14:51.233Z,83.54
2023-12-15T10:17:18.989Z,84.93
2023-12-15T10:19:46.871Z,83.33
2023-12-15T10:22:15.891Z,83.64
2023-12-15T10:24:43.448Z,84.67
2023-12-15T10:27:11.084Z,83.02
2023-12-15T10:29:40.189Z,83.60
2023-12-15T10:32:08.076Z,84.64
2023-12-15T10:34:35.783Z,84.75
2023-12-15T10:37:03.507Z,83.85
2023-12-15T10:39:33.299Z,84.10
2023-12-15T10:42:01.144Z,85.36
2023-12-15T10:44:28.983Z,85.46
2023-12-15T10:46:56.668Z,84.91
2023-12-15T10:49:27.096Z,84.92
2023-12-15T10:51:59.400Z,84.65
2023-12-15T10:54:28.237Z,83.35
2023-12-15T10:56:57.139Z,84.28
2023-12-15T10:59:24.704Z,82.95
2023-12-15T11:01:52.421Z,83.55
2023-12-15T11:04:23.727Z,83.37
2023-12-15T11:06:51.665Z,84.12
2023-12-15T11:09:42.904Z,84.42
2023-12-15T11:12:29.487Z,84.11
2023-12-15T11:15:01.007Z,84.08
2023-12-15T11:17:30.640Z,83.75
2023-12-15T11:20:07.403Z,83.84
2023-12-15T11:22:49.681Z,84.61
2023-12-15T11:25:21.074Z,84.10
2023-12-15T11:28:03.305Z,84.27
2023-12-15T11:30:32.710Z,83.80
2023-12-15T11:33:00.800Z,84.44
2023-12-15T11:35:30.924Z,85.13
2023-12-15T11:37:59.885Z,84.65
2023-12-15T11:40:30.552Z,84.07
2023-12-15T11:42:59.034Z,83.66
2023-12-15T11:45:28.246Z,84.26
2023-12-15T11:47:56.194Z,84.47
2023-12-15T11:50:24.015Z,84.99
2023-12-15T11:52:52.750Z,84.68
2023-12-15T11:55:21.685Z,85.06
2023-12-15T11:57:49.255Z,84.58
2023-12-15T12:00:20.728Z,85.47
2023-12-15T12:02:50.129Z,85.69
2023-12-15T12:05:17.785Z,86.07
2023-12-15T12:07:45.345Z,85.42
2023-12-15T12:10:13.001Z,85.14
2023-12-15T12:12:40.698Z,85.83
2023-12-15T12:15:10.944Z,85.04
2023-12-15T12:17:39.744Z,85.09
2023-12-15T12:20:12.241Z,85.28
2023-12-15T12:22:40.623Z,84.79
2023-12-15T12:25:09.110Z,85.42
2023-12-15T12:27:37.558Z,85.90
2023-12-15T12:30:12.894Z,85.28
2023-12-15T12:32:41.494Z,85.68
2023-12-15T12:35:11.099Z,85.28
2023-12-15T12:37:38.661Z,85.39
2023-12-15T12:40:07.593Z,85.87
2023-12-15T12:42:35.437Z,85.58
2023-12-15T12:45:03.228Z,85.74
2023-12-15T12:47:32.044Z,86.76
2023-12-15T12:50:00.852Z,86.58
2023-12-15T12:52:29.815Z,85.55
2023-12-15T12:54:57.491Z,86.38
2023-12-15T12:57:29.458Z,85.77
2023-12-15T12:59:57.047Z,85.86
2023-12-15T13:02:24.989Z,87.24
2023-12-15T13:04:52.716Z,86.32
2023-12-15T13:07:20.509Z,86.70
2023-12-15T13:09:49.432Z,87.30
2023-12-15T13:12:19.234Z,86.92
2023-12-15T13:14:47.115Z,87.12
2023-12-15T13:17:15.333Z,86.03
2023-12-15T13:19:43.042Z,86.30
2023-12-15T13:22:10.623Z,86.84
2023-12-15T13:24:47.045Z,86.26
2023-12-15T13:27:23.994Z,86.54
2023-12-15T13:29:52.257Z,87.21
2023-12-15T13:32:20.073Z,86.84
2023-12-15T13:34:47.871Z,86.95
2023-12-15T13:37:15.708Z,87.34
2023-12-15T13:39:43.934Z,87.13
2023-12-15T13:42:11.536Z,87.42
2023-12-15T13:44:40.592Z,86.89
2023-12-15T13:47:08.284Z,86.64
2023-12-15T13:49:35.909Z,88.41
2023-12-15T13:52:04.753Z,87.91
2023-12-15T13:54:32.415Z,88.28
2023-12-15T13:57:04.216Z,87.77
2023-12-15T13:59:32.828Z,88.70
2023-12-15T14:02:01.816Z,88.92
2023-12-15T14:04:29.404Z,89.72
2023-12-15T14:07:00.056Z,89.00
2023-12-15T14:09:29.055Z,89.47
2023-12-15T14:11:57.358Z,89.27
2023-12-15T14:14:25.136Z,89.69
2023-12-15T14:16:52.767Z,89.20
2023-12-15T14:19:21.776Z,89.73
2023-12-15T14:21:50.054Z,89.30
2023-12-15T14:24:19.220Z,89.95
2023-12-15T14:26:47.813Z,90.19
2023-12-15T14:29:15.863Z,89.20
2023-12-15T14:31:43.516Z,89.43
2023-12-15T14:34:11.286Z,90.25
2023-12-15T14:36:40.309Z,89.90
2023-12-15T14:39:08.172Z,90.52
2023-12-15T14:41:37.542Z,90.86
2023-12-15T14:44:06.194Z,90.43
2023-12-15T14:46:35.156Z,89.82
2023-12-15T14:49:03.266Z,90.76
2023-12-15T14:51:30.979Z,90.32
2023-12-15T14:53:59.844Z,91.37
2023-12-15T14:56:27.414Z,91.69
2023-12-15T14:58:55.039Z,90.40
2023-12-15T15:01:23.644Z,91.47
2023-12-15T15:03:51.534Z,91.58
2023-12-15T15:06:29.235Z,91.38
2023-12-15T15:09:01.856Z,91.30
2023-12-15T15:11:30.341Z,90.66
2023-12-15T15:13:57.979Z,90.92
2023-12-15T15:16:25.564Z,91.23
2023-12-15T15:18:53.367Z,91.78
2023-12-15T15:21:22.085Z,91.54
2023-12-15T15:23:49.997Z,91.82
2023-12-15T15:26:18.970Z,91.33
2023-12-15T15:28:46.588Z,92.11
2023-12-15T15:31:15.237Z,92.45
2023-12-15T15:33:42.973Z,92.07
2023-12-15T15:36:11.035Z,92.41
2023-12-15T15:38:38.834Z,91.73
2023-12-15T15:41:07.476Z,91.87
2023-12-15T15:43:37.613Z,92.84
2023-12-15T15:46:05.537Z,92.46
2023-12-15T15:48:33.227Z,92.94
2023-12-15T15:51:00.975Z,92.93
2023-12-15T15:53:28.626Z,93.32
2023-12-15T15:55:56.447Z,92.17
2023-12-15T15:58:24.351Z,93.09
2023-12-15T16:00:53.455Z,93.50
2023-12-15T16:03:21.265Z,93.45
2023-12-15T16:05:48.950Z,93.63
2023-12-15T16:08:16.549Z,93.56
2023-12-15T16:10:45.679Z,93.63
2023-12-15T16:13:14.080Z,93.63
2023-12-15T16:15:41.911Z,94.30
2023-12-15T16:18:11.135Z,93.63
2023-12-15T16:20:38.988Z,93.72
2023-12-15T16:23:06.533Z,94.10
2023-12-15T16:25:34.217Z,94.76
2023-12-15T16:28:02.159Z,95.20
2023-12-15T16:30:29.793Z,95.09
2023-12-15T16:32:57.574Z,95.21
2023-12-15T16:35:26.572Z,94.93
2023-12-15T16:37:54.443Z,95.66
2023-12-15T16:40:22.157Z,95.01
2023-12-15T16:42:49.855Z,95.19
2023-12-15T16:45:18.025Z,95.52
2023-12-15T16:47:47.366Z,95.70
2023-12-15T16:50:15.110Z,95.01
2023-12-15T16:52:44.085Z,95.58
2023-12-15T16:55:11.768Z,96.52
2023-12-15T16:57:41.230Z,95.95
2023-12-15T17:00:10.081Z,95.74
2023-12-15T17:02:37.871Z,95.95
2023-12-15T17:05:06.226Z,95.78
2023-12-15T17:07:33.873Z,96.10
2023-12-15T17:10:02.853Z,96.65
2023-12-15T17:12:30.476Z,96.97
2023-12-15T17:14:58.262Z,96.60
2023-12-15T17:17:26.008Z,96.45
2023-12-15T17:19:53.818Z,96.24
2023-12-15T17:22:21.649Z,96.46
2023-12-15T17:24:49.790Z,96.78
2023-12-15T17:27:18.799Z,96.32
2023-12-15T17:29:50.142Z,96.04
2023-12-15T17:32:19.232Z,96.20
2023-12-15T17:34:47.206Z,96.73
2023-12-15T17:37:15.003Z,96.08
2023-12-15T17:39:42.740Z,97.00
2023-12-15T17:42:10.345Z,96.93
2023-12-15T17:44:39.208Z,96.77
2023-12-15T17:47:06.957Z,96.08
2023-12-15T17:49:35.135Z,96.60
2023-12-15T17:52:03.382Z,96.17
2023-12-15T17:54:30.959Z,97.16
2023-12-15T17:56:58.620Z,97.03
2023-12-15T17:59:26.255Z,96.14
2023-12-15T18:01:55.204Z,96.59
2023-12-15T18:04:22.859Z,97.17
2023-12-15T18:06:50.528Z,97.17
2023-12-15T18:09:18.998Z,96.31
2023-12-15T18:11:47.262Z,96.50
2023-12-15T18:14:15.194Z,96.79
2023-12-15T18:16:42.755Z,96.49
2023-12-15T18:19:12.379Z,96.52
2023-12-15T18:21:41.050Z,96.79
2023-12-15T18:24:09.069Z,97.03
2023-12-15T18:26:37.884Z,97.30
2023-12-15T18:29:06.081Z,96.29
2023-12-15T18:31:33.809Z,96.67
2023-12-15T18:34:01.596Z,96.28
2023-12-15T18:36:30.539Z,97.17
2023-12-15T18:38:58.065Z,96.49
2023-12-15T18:41:26.737Z,96.59
2023-12-15T18:43:54.241Z,96.94
2023-12-15T18:46:21.856Z,96.56
2023-12-15T18:48:49.740Z,96.48
2023-12-15T18:51:19.043Z,97.03
2023-12-15T18:53:48.242Z,97.59
2023-12-15T18:56:19.398Z,96.73
2023-12-15T18:58:48.886Z,97.95
2023-12-15T19:01:17.561Z,97.63
2023-12-15T19:03:45.623Z,96.57
2023-12-15T19:06:14.984Z,97.24
2023-12-15T19:08:42.825Z,96.28
2023-12-15T19:11:13.609Z,97.30
2023-12-15T19:13:41.287Z,96.76
2023-12-15T19:16:09.767Z,96.31
2023-12-15T19:18:37.463Z,96.94
2023-12-15T19:21:05.973Z,96.03
2023-12-15T19:23:33.729Z,97.00
2023-12-15T19:26:01.317Z,97.10
2023-12-15T19:28:30.276Z,95.89
2023-12-15T19:30:58.399Z,95.90
2023-12-15T19:33:26.163Z,96.10
2023-12-15T19:35:53.827Z,96.03
2023-12-15T19:38:21.486Z,95.95
2023-12-15T19:40:49.032Z,96.87
2023-12-15T19:43:16.816Z,96.35
2023-12-15T19:45:45.956Z,96.19
2023-12-15T19:48:13.903Z,97.10
2023-12-15T19:50:41.714Z,96.90
2023-12-15T19:53:09.296Z,96.36
2023-12-15T19:55:38.442Z,96.54
2023-12-15T19:58:07.475Z,96.65
2023-12-15T20:00:36.613Z,96.34
2023-12-15T20:03:05.652Z,96.79
2023-12-15T20:05:33.248Z,96.77
2023-12-15T20:08:01.488Z,96.56
2023-12-15T20:10:29.085Z,97.66
2023-12-15T20:12:59.217Z,97.42
2023-12-15T20:15:27.675Z,97.06
2023-12-15T20:17:55.335Z,97.48
2023-12-15T20:20:24.383Z,97.48
2023-12-15T20:22:51.954Z,98.33
2023-12-15T20:25:19.637Z,97.00
2023-12-15T20:27:47.421Z,97.98
2023-12-15T20:30:15.374Z,98.13
2023-12-15T20:32:43.742Z,98.35
2023-12-15T20:35:11.841Z,98.25
2023-12-15T20:37:41.057Z,98.38
2023-12-15T20:40:12.055Z,98.01
2023-12-15T20:42:39.673Z,97.60
2023-12-15T20:45:08.650Z,98.07
2023-12-15T20:47:37.166Z,97.50
2023-12-15T20:50:05.902Z,97.42
2023-12-15T20:52:33.851Z,97.74
2023-12-15T20:55:02.897Z,98.74
2023-12-15T20:57:30.557Z,98.33
2023-12-15T20:59:58.274Z,98.29
2023-12-15T21:02:26.925Z,97.83
2023-12-15T21:04:54.606Z,99.21
2023-12-15T21:07:22.863Z,98.58
2023-12-15T21:09:52.199Z,98.36
2023-12-15T21:12:23.193Z,98.44
2023-12-15T21:14:51.098Z,98.62
2023-12-15T21:17:18.828Z,98.66
2023-12-15T21:19:46.525Z,98.36
2023-12-15T21:22:14.421Z,98.36
2023-12-15T21:24:42.649Z,98.18
2023-12-15T21:27:10.236Z,98.39
2023-12-15T21:29:39.114Z,98.52
2023-12-15T21:32:07.054Z,98.50
2023-12-15T21:34:34.697Z,98.75
2023-12-15T21:37:02.444Z,99.14
2023-12-15T21:39:30.196Z,98.55
2023-12-15T21:41:57.753Z,98.31
2023-12-15T21:44:25.342Z,98.73
2023-12-15T21:46:54.408Z,98.53
2023-12-15T21:49:22.169Z,98.05
2023-12-15T21:51:49.839Z,99.12
2023-12-15T21:54:17.481Z,99.28
2023-12-15T21:56:45.584Z,99.18
2023-12-15T21:59:13.873Z,99.04
2023-12-15T22:01:41.726Z,98.49
2023-12-15T22:04:12.092Z,99.22
2023-12-15T22:06:39.937Z,99.13
2023-12-15T22:09:10.318Z,99.46
2023-12-15T22:11:37.955Z,98.17
2023-12-15T22:14:05.605Z,98.85
2023-12-15T22:16:35.814Z,99.37
2023-12-15T22:19:06.916Z,99.01
2023-12-15T22:21:38.954Z,98.83
2023-12-15T22:24:06.859Z,98.67
2023-12-15T22:26:34.418Z,98.93
2023-12-15T22:29:02.013Z,99.40
2023-12-15T22:31:29.648Z,98.90
2023-12-15T22:33:57.323Z,99.52
2023-12-15T22:36:24.941Z,99.68
2023-12-15T22:38:53.837Z,98.73
2023-12-15T22:41:22.978Z,99.57
2023-12-15T22:43:50.620Z,98.76
2023-12-15T22:46:18.892Z,98.64
2023-12-15T22:48:46.544Z,99.33
2023-12-15T22:51:14.753Z,98.80
2023-12-15T22:53:42.425Z,99.12
2023-12-15T22:56:12.114Z,98.78
2023-12-15T22:58:39.769Z,98.72
2023-12-15T23:01:07.664Z,98.96
2023-12-15T23:03:35.309Z,98.83
2023-12-15T23:06:02.896Z,98.87
2023-12-15T23:08:30.539Z,98.84
2023-12-15T23:10:58.092Z,99.55
2023-12-15T23:13:27.066Z,99.47
2023-12-15T23:15:54.867Z,99.25
2023-12-15T23:18:22.846Z,99.51
2023-12-15T23:20:50.521Z,99.11
2023-12-15T23:23:18.540Z,98.71
2023-12-15T23:25:46.240Z,98.78
2023-12-15T23:28:13.909Z,99.33
2023-12-15T23:30:43.368Z,99.67
2023-12-15T23:33:11.036Z,98.90
2023-12-15T23:35:39.203Z,99.16
2023-12-15T23:38:06.805Z,99.08
2023-12-15T23:40:34.375Z,99.26
2023-12-15T23:43:02.821Z,99.30
2023-12-15T23:45:30.469Z,99.58
2023-12-15T23:47:59.485Z,99.11
2023-12-15T23:50:27.171Z,98.93
2023-12-15T23:52:55.506Z,99.16
2023-12-15T23:55:23.172Z,98.50
2023-12-15T23:57:50.822Z,99.00
